23:28
Airports
History
Links
Donate
Help keep this website running!
PayPal
Bitcoin
This page is community maintained. The information is intended for PC simulator navigation or reference.
Always use approved charts for navigation.
EDRJ
Saarlouis Dueren
Saarlouis Dueren (EDRJ)
Wallerfangen, Saarland, Germany (66798)
(U)
Lat/Lng:49° 18' 44.99" N / 6° 40' 26.4" E
49.312496 / 6.674
Elevation:1120'ft / 341mMSL
ID / ICAO:EDRJ
Runways:1
Longest:07-25
Asphalt 805m / 2,640ft
Nearby Weather23:20 GMT 2018-02-19
Nearby weather at EDDR, Saarbrucken located 20.8 nautical miles from EDRJ
Altimeter: 29.97
Visibility: 6.2 statute miles
Wind: 1 knots (from VRB°)
Temp: -1°c / 30°f
Humidity: 80.0%

METAR: EDDR 192320Z AUTO VRB01KT 9999 // OVC029/// M01/M04 Q1015

(Powered by phpweather)
Nearby VORs <50NM
Nearby NDBs
Runway 07 / 25
Dimensions:804.7 x 20.1m 2640' x 66'ft
Surface:Asphalt
Runway 07 [A]Runway 25 [B]
Heading:074°TH 254°TH
Lat:
Lng:
49° 18' 41.42"N
6° 40' 7.3"E
49° 18' 48.56"N
6° 40' 45.5"E
User Notes and Comments
49° 18' 44.99" N / 6° 40' 26.4" E
Distance To
Airport ID:
Nearby Airports
(C) Saarbrucken 20.8 NM
EDDR ( WX ) ESE 108°
4 Thionville Yutz 21.3 NM
LFGV W 278°
4 Sarreguemines Neunkirch 23.2 NM
LFGU ESE 122°
(C) Metz Frescaty 29.5 NM
LFSF ( WX ) SW 235°
(C) Metz-Nancy-Lorraine 29.9 NM
LFJL ( WX ) SW 219°
(C) Luxembourg 30.0 NM
ELLX ( WX ) NW 316°
(U) Hoppstaedten Weiersbach 30.9 NM
EDRH NE 48°
VFR Chart
Flight Planning at SkyVector.com